createdAt,value
2019-02-28T00:00:30.778Z,7.80
2019-02-28T00:02:58.826Z,9.60
2019-02-28T00:05:26.862Z,8.20
2019-02-28T00:07:54.910Z,7.00
2019-02-28T00:10:22.962Z,8.37
2019-02-28T00:12:51.026Z,8.10
2019-02-28T00:15:19.038Z,8.00
2019-02-28T00:17:47.088Z,8.07
2019-02-28T00:20:15.130Z,9.73
2019-02-28T00:22:48.419Z,9.23
2019-02-28T00:25:13.903Z,10.80
2019-02-28T00:27:41.954Z,9.77
2019-02-28T00:30:11.276Z,8.10
2019-02-28T00:32:39.313Z,8.87
2019-02-28T00:35:12.803Z,11.27
2019-02-28T00:37:37.590Z,7.63
2019-02-28T00:40:07.516Z,9.10
2019-02-28T00:42:35.742Z,11.77
2019-02-28T00:45:05.558Z,8.57
2019-02-28T00:47:33.606Z,8.20
2019-02-28T00:50:01.674Z,9.50
2019-02-28T00:52:32.080Z,10.17
2019-02-28T00:54:59.487Z,9.60
2019-02-28T00:57:27.546Z,9.93
2019-02-28T00:59:55.584Z,8.07
2019-02-28T01:02:23.635Z,10.13
2019-02-28T01:04:51.698Z,10.83
2019-02-28T01:07:19.799Z,11.20
2019-02-28T01:09:47.842Z,15.43
2019-02-28T01:12:19.359Z,14.47
2019-02-28T01:14:45.675Z,15.20
2019-02-28T01:17:13.725Z,17.93
2019-02-28T01:19:42.358Z,9.40
2019-02-28T01:22:10.422Z,12.40
2019-02-28T01:24:38.465Z,13.70
2019-02-28T01:27:06.522Z,12.77
2019-02-28T01:29:35.652Z,15.60
2019-02-28T01:32:04.415Z,10.40
2019-02-28T01:34:33.055Z,14.00
2019-02-28T01:37:01.106Z,14.53
2019-02-28T01:39:29.926Z,11.40
2019-02-28T01:41:58.689Z,12.27
2019-02-28T01:44:26.750Z,9.27
2019-02-28T01:46:54.800Z,9.33
2019-02-28T01:49:26.033Z,8.37
2019-02-28T01:51:52.961Z,11.53
2019-02-28T01:54:21.410Z,10.30
2019-02-28T01:56:49.598Z,12.67
2019-02-28T01:59:17.646Z,11.50
2019-02-28T02:01:45.702Z,10.50
2019-02-28T02:04:13.768Z,11.30
2019-02-28T02:06:41.820Z,10.27
2019-02-28T02:09:11.085Z,11.67
2019-02-28T02:11:39.817Z,12.07
2019-02-28T02:14:11.064Z,16.27
2019-02-28T02:16:37.621Z,8.10
2019-02-28T02:19:05.675Z,9.30
2019-02-28T02:21:35.044Z,12.53
2019-02-28T02:24:03.688Z,15.53
2019-02-28T02:26:31.728Z,11.87
2019-02-28T02:29:01.181Z,11.93
2019-02-28T02:31:29.558Z,11.33
2019-02-28T02:33:57.631Z,15.63
2019-02-28T02:36:25.687Z,8.83
2019-02-28T02:38:53.739Z,10.30
2019-02-28T02:41:21.798Z,10.30
2019-02-28T02:43:49.868Z,11.57
2019-02-28T02:46:20.174Z,11.23
2019-02-28T02:48:47.670Z,13.73
2019-02-28T02:51:15.731Z,13.50
2019-02-28T02:53:43.778Z,11.10
2019-02-28T02:56:11.849Z,14.73
2019-02-28T02:58:39.903Z,17.13
2019-02-28T03:01:07.968Z,11.53
2019-02-28T03:03:42.840Z,12.03
2019-02-28T03:06:12.112Z,13.47
2019-02-28T03:08:36.399Z,11.90
2019-02-28T03:11:05.471Z,10.27
2019-02-28T03:13:38.050Z,12.13
2019-02-28T03:16:03.325Z,18.60
2019-02-28T03:18:31.389Z,15.77
2019-02-28T03:20:59.443Z,13.50
2019-02-28T03:23:27.494Z,12.70
2019-02-28T03:25:55.903Z,15.77
2019-02-28T03:28:23.987Z,14.30
2019-02-28T03:30:52.042Z,10.40
2019-02-28T03:33:27.243Z,15.80
2019-02-28T03:35:49.864Z,16.30
2019-02-28T03:38:17.950Z,16.70
2019-02-28T03:40:45.998Z,18.40
2019-02-28T03:43:14.054Z,14.93
2019-02-28T03:45:42.106Z,10.27
2019-02-28T03:48:10.160Z,11.87
2019-02-28T03:50:38.201Z,11.13
2019-02-28T03:53:06.299Z,12.63
2019-02-28T03:55:39.858Z,11.33
2019-02-28T03:58:05.637Z,12.57
2019-02-28T04:00:34.319Z,11.83
2019-02-28T04:03:02.397Z,11.90
2019-02-28T04:05:30.452Z,16.73
2019-02-28T04:07:58.515Z,11.27
2019-02-28T04:10:26.577Z,13.40
2019-02-28T04:12:54.627Z,14.00
2019-02-28T04:15:22.700Z,11.00
2019-02-28T04:17:50.751Z,8.37
2019-02-28T04:20:18.835Z,9.60
2019-02-28T04:22:46.901Z,12.30
2019-02-28T04:25:15.022Z,12.53
2019-02-28T04:27:43.137Z,11.53
2019-02-28T04:30:11.913Z,10.50
2019-02-28T04:32:39.987Z,12.63
2019-02-28T04:35:08.214Z,17.50
2019-02-28T04:37:36.262Z,11.73
2019-02-28T04:40:08.680Z,11.87
2019-02-28T04:42:37.328Z,15.30
2019-02-28T04:45:07.133Z,11.53
2019-02-28T04:47:37.273Z,10.33
2019-02-28T04:50:06.224Z,15.10
2019-02-28T04:52:34.364Z,11.70
2019-02-28T04:55:03.823Z,23.20
2019-02-28T04:57:32.083Z,15.33
2019-02-28T05:00:00.385Z,14.30
2019-02-28T05:02:28.453Z,16.63
2019-02-28T05:04:56.507Z,16.60
2019-02-28T05:07:26.301Z,15.13
2019-02-28T05:09:54.333Z,13.93
2019-02-28T05:12:22.397Z,13.93
2019-02-28T05:14:50.442Z,15.17
2019-02-28T05:17:19.352Z,14.63
2019-02-28T05:19:48.282Z,12.23
2019-02-28T05:22:16.326Z,19.23
2019-02-28T05:24:44.406Z,16.67
2019-02-28T05:27:12.459Z,14.90
2019-02-28T05:29:43.880Z,14.93
2019-02-28T05:32:10.297Z,13.60
2019-02-28T05:34:38.350Z,21.17
2019-02-28T05:37:12.134Z,18.33
2019-02-28T05:39:36.191Z,12.97
2019-02-28T05:42:04.243Z,15.60
2019-02-28T05:44:32.285Z,14.63
2019-02-28T05:47:00.360Z,11.67
2019-02-28T05:49:28.404Z,17.97
2019-02-28T05:51:59.953Z,16.27
2019-02-28T05:54:28.040Z,15.03
2019-02-28T05:56:56.084Z,14.40
2019-02-28T05:59:27.211Z,12.27
2019-02-28T06:01:53.914Z,16.37
2019-02-28T06:04:21.963Z,11.70
2019-02-28T06:06:51.449Z,16.37
2019-02-28T06:09:19.790Z,14.30
2019-02-28T06:11:47.841Z,10.83
2019-02-28T06:14:15.898Z,12.70
2019-02-28T06:16:46.804Z,17.03
2019-02-28T06:19:13.722Z,15.67
2019-02-28T06:21:41.767Z,12.63
2019-02-28T06:24:12.828Z,12.83
2019-02-28T06:26:39.610Z,13.70
2019-02-28T06:29:07.699Z,15.57
2019-02-28T06:31:35.743Z,21.27
2019-02-28T06:34:05.571Z,31.73
2019-02-28T06:36:33.693Z,11.63
2019-02-28T06:39:01.742Z,13.93
2019-02-28T06:41:29.786Z,11.00
2019-02-28T06:43:57.846Z,10.53
2019-02-28T06:46:45.279Z,10.87
2019-02-28T06:49:13.410Z,13.63
2019-02-28T06:51:41.462Z,16.23
2019-02-28T06:54:09.535Z,16.93
2019-02-28T06:56:37.608Z,14.97
2019-02-28T06:59:05.651Z,16.63
2019-02-28T07:01:35.065Z,14.37
2019-02-28T07:04:03.120Z,13.67
2019-02-28T07:06:35.764Z,12.37
2019-02-28T07:09:02.532Z,12.03
2019-02-28T07:11:30.712Z,15.17
2019-02-28T07:13:58.797Z,10.50
2019-02-28T07:16:26.849Z,14.37
2019-02-28T07:18:54.907Z,15.27
2019-02-28T07:21:22.949Z,12.23
2019-02-28T07:23:51.014Z,13.37
2019-02-28T07:26:19.646Z,17.57
2019-02-28T07:28:47.707Z,21.60
2019-02-28T07:31:15.770Z,17.33
2019-02-28T07:33:44.515Z,22.93
2019-02-28T07:36:13.305Z,17.93
2019-02-28T07:38:41.370Z,19.77
2019-02-28T07:41:09.427Z,16.47
2019-02-28T07:43:37.833Z,17.87
2019-02-28T07:46:07.656Z,19.67
2019-02-28T07:48:35.726Z,20.47
2019-02-28T07:51:03.792Z,26.43
2019-02-28T07:53:31.852Z,17.27
2019-02-28T07:55:59.900Z,16.90
2019-02-28T07:58:29.842Z,21.90
2019-02-28T08:00:57.726Z,18.47
2019-02-28T08:03:25.783Z,17.20
2019-02-28T08:05:53.845Z,19.57
2019-02-28T08:08:23.369Z,16.23
2019-02-28T08:10:51.665Z,17.23
2019-02-28T08:13:19.715Z,17.97
2019-02-28T08:15:47.775Z,17.33
2019-02-28T08:18:18.836Z,15.80
2019-02-28T08:20:45.602Z,24.10
2019-02-28T08:23:13.647Z,16.70
2019-02-28T08:25:42.772Z,19.40
2019-02-28T08:28:11.534Z,18.17
2019-02-28T08:30:39.587Z,21.30
2019-02-28T08:33:07.652Z,22.03
2019-02-28T08:35:35.916Z,20.73
2019-02-28T08:38:04.103Z,18.83
2019-02-28T08:40:32.158Z,19.07
2019-02-28T08:43:00.198Z,21.03
2019-02-28T08:45:32.880Z,21.60
2019-02-28T08:47:58.099Z,19.97
2019-02-28T08:50:26.420Z,21.40
2019-02-28T08:52:59.050Z,21.80
2019-02-28T08:55:29.160Z,19.23
2019-02-28T08:58:04.057Z,20.43
2019-02-28T09:00:31.297Z,18.30
2019-02-28T09:02:56.503Z,20.37
2019-02-28T09:05:26.663Z,25.90
2019-02-28T09:07:54.344Z,22.73
2019-02-28T09:10:22.854Z,26.43
2019-02-28T09:12:50.906Z,24.27
2019-02-28T09:15:19.033Z,22.67
2019-02-28T09:17:47.252Z,21.23
2019-02-28T09:20:15.661Z,25.67
2019-02-28T09:22:43.785Z,23.27
2019-02-28T09:25:13.378Z,21.90
2019-02-28T09:27:41.435Z,22.00
2019-02-28T09:30:16.821Z,22.33
2019-02-28T09:32:45.228Z,23.33
2019-02-28T09:35:14.645Z,26.50
2019-02-28T09:37:42.695Z,27.10
2019-02-28T09:40:14.376Z,22.97
2019-02-28T09:42:44.461Z,23.83
2019-02-28T09:45:13.485Z,22.53
2019-02-28T09:47:41.535Z,22.37
2019-02-28T09:50:11.134Z,24.10
2019-02-28T09:52:41.612Z,24.40
2019-02-28T09:55:09.447Z,30.50
2019-02-28T09:57:37.494Z,30.67
2019-02-28T10:00:11.681Z,25.70
2019-02-28T10:02:40.410Z,38.23
2019-02-28T10:05:08.662Z,25.27
2019-02-28T10:07:36.712Z,26.67
2019-02-28T10:10:06.312Z,31.20
2019-02-28T10:12:34.615Z,26.47
2019-02-28T10:15:07.007Z,25.13
2019-02-28T10:17:32.462Z,28.17
2019-02-28T10:20:00.506Z,28.87
2019-02-28T10:22:28.562Z,28.70
2019-02-28T10:24:56.618Z,31.73
2019-02-28T10:27:26.960Z,29.27
2019-02-28T10:29:54.454Z,30.83
2019-02-28T10:32:22.579Z,29.80
2019-02-28T10:34:50.626Z,30.63
2019-02-28T10:37:19.336Z,28.47
2019-02-28T10:39:48.450Z,30.30
2019-02-28T10:42:16.519Z,30.57
2019-02-28T10:44:44.572Z,30.13
2019-02-28T10:47:12.605Z,33.33
2019-02-28T10:49:40.714Z,30.00
2019-02-28T10:52:08.776Z,28.50
2019-02-28T10:54:36.826Z,27.23
2019-02-28T10:57:06.127Z,30.73
2019-02-28T10:59:34.806Z,35.10
2019-02-28T11:02:02.859Z,33.83
2019-02-28T11:04:30.914Z,28.13
2019-02-28T11:06:59.326Z,36.80
2019-02-28T11:09:28.818Z,32.10
2019-02-28T11:11:56.867Z,30.83
2019-02-28T11:14:24.917Z,38.13
2019-02-28T11:16:59.094Z,34.97
2019-02-28T11:19:22.819Z,35.93
2019-02-28T11:21:50.854Z,33.77
2019-02-28T11:24:20.657Z,34.03
2019-02-28T11:26:48.686Z,35.90
2019-02-28T11:29:16.748Z,33.90
2019-02-28T11:31:44.795Z,30.97
2019-02-28T11:34:15.032Z,34.53
2019-02-28T11:36:44.745Z,34.37
2019-02-28T11:39:14.108Z,33.70
2019-02-28T11:41:42.234Z,32.03
2019-02-28T11:44:12.010Z,35.73
2019-02-28T11:46:40.058Z,37.83
2019-02-28T11:49:08.227Z,38.60
2019-02-28T11:51:37.010Z,36.17
2019-02-28T11:54:05.161Z,33.53
2019-02-28T11:56:33.247Z,33.93
2019-02-28T11:59:01.290Z,38.13
2019-02-28T12:01:29.339Z,38.30
2019-02-28T12:03:57.406Z,38.03
2019-02-28T12:06:26.289Z,36.27
2019-02-28T12:08:54.423Z,36.00
2019-02-28T12:11:22.550Z,38.40
2019-02-28T12:13:51.711Z,36.07
2019-02-28T12:16:20.411Z,38.70
2019-02-28T12:18:48.493Z,36.47
2019-02-28T12:21:16.534Z,40.13
2019-02-28T12:23:44.590Z,39.70
2019-02-28T12:26:14.342Z,36.30
2019-02-28T12:28:42.451Z,34.00
2019-02-28T12:31:10.762Z,31.73
2019-02-28T12:33:38.814Z,34.37
2019-02-28T12:36:07.065Z,31.83
2019-02-28T12:38:35.131Z,34.27
2019-02-28T12:41:03.212Z,29.93
2019-02-28T12:43:31.249Z,34.60
2019-02-28T12:45:59.961Z,29.47
2019-02-28T12:48:28.830Z,31.57
2019-02-28T12:50:57.047Z,31.23
2019-02-28T12:53:25.510Z,32.33
2019-02-28T12:55:53.734Z,35.63
2019-02-28T12:58:21.782Z,30.13
2019-02-28T13:00:49.908Z,34.53
2019-02-28T13:03:20.256Z,30.57
2019-02-28T13:05:49.226Z,26.90
2019-02-28T13:08:17.630Z,30.57
2019-02-28T13:10:45.675Z,27.17
2019-02-28T13:13:13.719Z,33.93
2019-02-28T13:15:45.525Z,28.33
2019-02-28T13:18:11.625Z,25.93
2019-02-28T13:20:39.730Z,29.30
2019-02-28T13:23:07.813Z,28.23
2019-02-28T13:25:35.877Z,24.00
2019-02-28T13:28:05.525Z,26.67
2019-02-28T13:30:33.618Z,26.97
2019-02-28T13:33:01.670Z,27.03
2019-02-28T13:35:30.494Z,21.83
2019-02-28T13:37:59.158Z,27.03
2019-02-28T13:40:27.287Z,27.70
2019-02-28T13:42:55.338Z,24.73
2019-02-28T13:45:24.642Z,22.30
2019-02-28T13:47:52.689Z,23.40
2019-02-28T13:50:28.330Z,22.40
2019-02-28T13:52:56.371Z,20.43
2019-02-28T13:55:24.612Z,27.43
2019-02-28T13:57:52.653Z,24.43
2019-02-28T14:00:27.824Z,21.67
2019-02-28T14:02:56.654Z,21.17
2019-02-28T14:05:24.776Z,17.60
2019-02-28T14:07:52.825Z,24.90
2019-02-28T14:10:21.952Z,18.53
2019-02-28T14:12:53.278Z,23.57
2019-02-28T14:15:21.304Z,18.83
2019-02-28T14:17:50.242Z,22.33
2019-02-28T14:20:18.291Z,19.27
2019-02-28T14:22:46.635Z,16.47
2019-02-28T14:25:15.283Z,20.57
2019-02-28T14:27:43.334Z,22.03
2019-02-28T14:30:12.922Z,21.80
2019-02-28T14:32:42.179Z,19.30
2019-02-28T14:35:11.454Z,19.87
2019-02-28T14:37:39.519Z,18.80
2019-02-28T14:40:09.157Z,21.83
2019-02-28T14:42:37.207Z,18.47
2019-02-28T14:45:15.172Z,23.57
2019-02-28T14:47:43.387Z,21.90
2019-02-28T14:50:12.219Z,22.80
2019-02-28T14:52:40.397Z,21.03
2019-02-28T14:55:10.174Z,22.47
2019-02-28T14:57:38.259Z,22.73
2019-02-28T15:00:13.578Z,19.80
2019-02-28T15:02:41.635Z,20.17
2019-02-28T15:05:10.758Z,20.27
2019-02-28T15:07:39.752Z,23.77
2019-02-28T15:10:22.338Z,26.27
2019-02-28T15:12:50.388Z,23.50
2019-02-28T15:15:19.003Z,23.43
2019-02-28T15:17:47.063Z,27.03
2019-02-28T15:20:16.343Z,25.33
2019-02-28T15:22:44.390Z,28.00
2019-02-28T15:25:15.278Z,31.57
2019-02-28T15:27:43.194Z,29.33
2019-02-28T15:30:15.185Z,28.67
2019-02-28T15:32:43.241Z,34.70
2019-02-28T15:35:15.336Z,27.40
2019-02-28T15:37:42.281Z,27.53
2019-02-28T15:40:11.892Z,30.67
2019-02-28T15:42:42.956Z,26.40
2019-02-28T15:45:10.984Z,25.93
2019-02-28T15:47:39.039Z,30.40
2019-02-28T15:50:08.646Z,30.73
2019-02-28T15:52:39.259Z,30.30
2019-02-28T15:55:06.941Z,35.10
2019-02-28T15:57:35.058Z,32.80
2019-02-28T16:00:05.033Z,32.27
2019-02-28T16:02:33.095Z,32.33
2019-02-28T16:05:05.209Z,33.43
2019-02-28T16:07:33.375Z,31.93
2019-02-28T16:10:00.947Z,27.33
2019-02-28T16:12:29.008Z,33.37
2019-02-28T16:14:57.058Z,29.47
2019-02-28T16:17:25.165Z,32.80
2019-02-28T16:19:53.329Z,32.60
2019-02-28T16:22:22.990Z,38.63
2019-02-28T16:24:51.054Z,33.07
2019-02-28T16:27:19.097Z,31.70
2019-02-28T16:29:47.172Z,33.87
2019-02-28T16:32:15.439Z,29.80
2019-02-28T16:34:43.653Z,29.57
2019-02-28T16:37:11.787Z,31.03
2019-02-28T16:39:39.844Z,30.17
2019-02-28T16:42:08.347Z,34.40
2019-02-28T16:44:36.450Z,38.73
2019-02-28T16:47:04.571Z,41.63
2019-02-28T16:49:32.622Z,52.10
2019-02-28T16:52:05.972Z,46.57
2019-02-28T16:54:34.314Z,48.10
2019-02-28T16:57:02.351Z,47.10
2019-02-28T16:59:31.735Z,47.50
2019-02-28T17:02:00.191Z,47.70
2019-02-28T17:04:28.245Z,47.47
2019-02-28T17:06:56.299Z,51.60
2019-02-28T17:09:29.932Z,45.57
2019-02-28T17:11:58.088Z,41.33
2019-02-28T17:14:26.151Z,42.17
2019-02-28T17:16:55.830Z,41.67
2019-02-28T17:19:23.961Z,31.47
2019-02-28T17:21:52.494Z,24.87
2019-02-28T17:24:21.343Z,24.73
2019-02-28T17:27:06.215Z,15.97
2019-02-28T17:29:37.498Z,16.63
2019-02-28T17:32:05.798Z,11.73
2019-02-28T17:34:33.870Z,10.83
2019-02-28T17:37:01.946Z,12.20
2019-02-28T17:39:30.058Z,7.77
2019-02-28T17:41:58.099Z,10.23
2019-02-28T17:44:27.767Z,7.27
2019-02-28T17:47:03.418Z,6.07
2019-02-28T17:49:35.891Z,8.90
2019-02-28T17:52:17.509Z,7.10
2019-02-28T17:54:47.095Z,9.90
2019-02-28T17:57:17.732Z,4.70
2019-02-28T17:59:59.331Z,6.63
2019-02-28T18:02:38.295Z,3.70
2019-02-28T18:05:14.320Z,6.00
2019-02-28T18:07:43.904Z,5.93
2019-02-28T18:10:21.108Z,6.90
2019-02-28T18:12:53.471Z,4.80
2019-02-28T18:15:23.226Z,6.20
2019-02-28T18:18:02.050Z,5.20
2019-02-28T18:20:43.804Z,5.03
2019-02-28T18:23:13.377Z,7.43
2019-02-28T18:25:52.183Z,9.13
2019-02-28T18:28:29.358Z,7.77
2019-02-28T18:31:08.565Z,8.50
2019-02-28T18:33:37.481Z,9.30
2019-02-28T18:36:24.895Z,12.00
2019-02-28T18:38:52.948Z,11.47
2019-02-28T18:41:20.989Z,10.73
2019-02-28T18:43:49.054Z,11.23
2019-02-28T18:46:17.106Z,11.00
2019-02-28T18:48:45.155Z,10.57
2019-02-28T18:51:13.207Z,10.50
2019-02-28T18:53:41.282Z,10.30
2019-02-28T18:56:09.339Z,9.77
2019-02-28T18:58:37.467Z,12.33
2019-02-28T19:01:05.506Z,11.30
2019-02-28T19:03:33.546Z,9.33
2019-02-28T19:06:01.607Z,8.00
2019-02-28T19:08:29.734Z,9.73
2019-02-28T19:10:57.776Z,11.00
2019-02-28T19:13:25.860Z,8.93
2019-02-28T19:15:53.911Z,8.80
2019-02-28T19:18:21.954Z,9.50
2019-02-28T19:20:50.011Z,10.00
2019-02-28T19:23:18.058Z,13.40
2019-02-28T19:25:46.119Z,8.50
2019-02-28T19:28:14.385Z,10.87
2019-02-28T19:30:42.460Z,12.30
2019-02-28T19:33:10.659Z,11.83
2019-02-28T19:35:38.706Z,11.10
2019-02-28T19:38:06.750Z,15.77
2019-02-28T19:40:34.885Z,12.90
2019-02-28T19:43:02.924Z,9.83
2019-02-28T19:45:32.634Z,14.33
2019-02-28T19:48:00.737Z,11.20
2019-02-28T19:50:28.778Z,13.30
2019-02-28T19:52:56.834Z,12.03
2019-02-28T19:55:24.880Z,16.97
2019-02-28T19:57:52.932Z,13.73
2019-02-28T20:00:20.981Z,13.63
2019-02-28T20:02:49.023Z,17.53
2019-02-28T20:05:17.091Z,22.03
2019-02-28T20:07:45.134Z,13.87
2019-02-28T20:10:17.470Z,17.37
2019-02-28T20:12:45.514Z,17.47
2019-02-28T20:15:14.742Z,14.77
2019-02-28T20:17:43.197Z,19.83
2019-02-28T20:20:22.207Z,15.37
2019-02-28T20:22:50.261Z,14.83
2019-02-28T20:25:18.376Z,18.50
2019-02-28T20:27:46.423Z,16.23
2019-02-28T20:30:18.043Z,18.40
2019-02-28T20:32:46.093Z,16.57
2019-02-28T20:35:14.397Z,16.60
2019-02-28T20:37:42.574Z,14.33
2019-02-28T20:40:13.958Z,13.93
2019-02-28T20:42:42.910Z,19.93
2019-02-28T20:45:11.817Z,18.00
2019-02-28T20:47:39.918Z,17.00
2019-02-28T20:50:12.288Z,15.93
2019-02-28T20:52:40.422Z,17.27
2019-02-28T20:55:08.563Z,23.10
2019-02-28T20:57:36.624Z,18.57
2019-02-28T21:00:06.711Z,22.63
2019-02-28T21:02:34.851Z,21.70
2019-02-28T21:05:03.204Z,22.40
2019-02-28T21:07:31.248Z,14.80
2019-02-28T21:09:59.336Z,18.10
2019-02-28T21:12:27.438Z,18.40
2019-02-28T21:14:55.483Z,16.10
2019-02-28T21:17:29.419Z,17.60
2019-02-28T21:19:53.315Z,19.07
2019-02-28T21:22:21.373Z,23.27
2019-02-28T21:24:49.442Z,18.37
2019-02-28T21:27:17.524Z,22.37
2019-02-28T21:29:45.546Z,20.10
2019-02-28T21:32:13.620Z,24.37
2019-02-28T21:34:41.670Z,15.97
2019-02-28T21:37:09.744Z,19.97
2019-02-28T21:39:37.789Z,24.20
2019-02-28T21:42:05.842Z,25.47
2019-02-28T21:44:34.371Z,17.00
2019-02-28T21:47:02.406Z,21.40
2019-02-28T21:49:30.479Z,22.60
2019-02-28T21:51:59.407Z,19.80
2019-02-28T21:54:27.538Z,19.83
2019-02-28T21:56:55.630Z,20.57
2019-02-28T21:59:23.678Z,19.20
2019-02-28T22:01:51.729Z,23.63
2019-02-28T22:04:19.799Z,23.53
2019-02-28T22:06:47.852Z,19.87
2019-02-28T22:09:15.903Z,19.33
2019-02-28T22:11:43.994Z,21.60
2019-02-28T22:14:12.057Z,21.40
2019-02-28T22:16:40.180Z,20.77
2019-02-28T22:19:08.230Z,20.87
2019-02-28T22:21:36.278Z,19.57
2019-02-28T22:24:04.372Z,18.53
2019-02-28T22:26:34.098Z,19.50
2019-02-28T22:29:02.241Z,22.77
2019-02-28T22:31:34.848Z,19.50
2019-02-28T22:34:07.668Z,21.63
2019-02-28T22:36:37.359Z,22.53
2019-02-28T22:39:05.478Z,21.03
2019-02-28T22:41:33.538Z,21.43
2019-02-28T22:44:01.597Z,23.27
2019-02-28T22:46:29.682Z,20.80
2019-02-28T22:48:57.760Z,22.23
2019-02-28T22:51:26.470Z,16.80
2019-02-28T22:53:54.618Z,18.87
2019-02-28T22:56:22.688Z,22.70
2019-02-28T22:58:50.978Z,21.93
2019-02-28T23:01:20.832Z,24.40
2019-02-28T23:03:50.240Z,23.00
2019-02-28T23:06:18.432Z,18.67
2019-02-28T23:08:46.558Z,21.47
2019-02-28T23:11:15.067Z,21.47
2019-02-28T23:13:43.175Z,20.17
2019-02-28T23:16:11.181Z,24.17
2019-02-28T23:18:39.234Z,21.77
2019-02-28T23:21:07.294Z,19.13
2019-02-28T23:23:35.339Z,19.87
2019-02-28T23:26:07.199Z,22.70
2019-02-28T23:28:36.517Z,16.93
2019-02-28T23:31:09.038Z,23.07
2019-02-28T23:33:37.077Z,22.67
2019-02-28T23:36:05.134Z,23.73
2019-02-28T23:38:33.201Z,20.90
2019-02-28T23:41:01.577Z,19.17
2019-02-28T23:43:29.628Z,19.40
2019-02-28T23:45:58.678Z,19.90
2019-02-28T23:48:26.858Z,21.57
2019-02-28T23:50:54.909Z,19.63
2019-02-28T23:53:23.013Z,15.93
2019-02-28T23:55:51.063Z,13.33
2019-02-28T23:58:19.152Z,15.87
